Time;durP1;ratioP1;P1;durP2;ratioP2;P2;SDS_P1;SDS_P2;PMS_P1;PMS_P2;Temp;Humidity;BMP_temperature;BMP_pressure;BME280_temperature;BME280_humidity;BME280_pressure;Samples;Min_cycle;Max_cycle;Signal;HPM_P1;HPM_P2
2023/11/18 00:02:00;;;;;;;45.30;22.00;;;;;;;8.38;65.56;102352.44;6186005;22;124061;-79
2023/11/18 00:04:27;;;;;;;47.55;20.73;;;;;;;8.39;65.45;102342.75;6187392;22;124610;-79
2023/11/18 00:06:54;;;;;;;44.90;19.52;;;;;;;8.37;65.54;102340.09;6187030;22;109191;-79
2023/11/18 00:09:24;;;;;;;45.08;20.90;;;;;;;8.38;65.18;102336.59;6186231;22;109899;-79
2023/11/18 00:11:51;;;;;;;42.28;18.50;;;;;;;8.36;65.15;102333.09;6183298;22;123744;-79
2023/11/18 00:14:20;;;;;;;41.88;19.88;;;;;;;8.36;65.17;102335.75;6185764;22;123952;-79
2023/11/18 00:16:48;;;;;;;45.05;19.60;;;;;;;8.36;65.35;102342.75;6188928;22;109145;-78
2023/11/18 00:19:15;;;;;;;41.92;18.63;;;;;;;8.35;65.04;102336.63;6159830;22;107959;-79
2023/11/18 00:21:43;;;;;;;39.58;17.65;;;;;;;8.34;65.35;102339.28;6185446;22;123813;-79
2023/11/18 00:24:11;;;;;;;35.80;17.52;;;;;;;8.33;65.25;102338.41;6185618;22;124170;-79
2023/11/18 00:26:38;;;;;;;39.55;17.50;;;;;;;8.31;64.88;102340.19;6184370;22;109369;-79
2023/11/18 00:29:05;;;;;;;37.90;16.63;;;;;;;8.29;65.19;102338.47;6185347;22;110109;-79
2023/11/18 00:31:32;;;;;;;38.13;17.02;;;;;;;8.29;65.14;102341.13;6184329;22;123239;-79
2023/11/18 00:34:00;;;;;;;37.92;16.08;;;;;;;8.26;65.18;102334.09;6187207;22;123756;-79
2023/11/18 00:36:28;;;;;;;38.97;15.57;;;;;;;8.25;65.19;102324.44;6187036;22;109464;-79
2023/11/18 00:38:55;;;;;;;36.38;15.85;;;;;;;8.22;65.08;102329.72;6185354;22;109094;-79
2023/11/18 00:41:23;;;;;;;40.30;16.73;;;;;;;8.21;65.12;102316.56;6187714;22;123252;-79
2023/11/18 00:43:50;;;;;;;34.58;15.70;;;;;;;8.16;64.90;102324.53;6187921;22;123594;-79
2023/11/18 00:46:17;;;;;;;36.30;15.82;;;;;;;8.14;64.97;102324.53;6186549;22;109063;-79
2023/11/18 00:48:45;;;;;;;32.67;14.55;;;;;;;8.13;65.02;102329.84;6190745;22;110038;-79
2023/11/18 00:51:12;;;;;;;35.08;15.43;;;;;;;8.10;65.27;102325.47;6161763;22;123510;-79
2023/11/18 00:53:39;;;;;;;33.47;15.98;;;;;;;8.09;65.30;102322.84;6186393;22;122926;-79
2023/11/18 00:56:09;;;;;;;34.95;15.45;;;;;;;8.08;65.21;102321.09;6161807;22;108973;-79
2023/11/18 00:58:40;;;;;;;34.22;15.35;;;;;;;8.06;65.16;102322.88;6189302;22;108942;-79
2023/11/18 01:01:07;;;;;;;31.75;15.15;;;;;;;8.04;65.42;102327.28;6187346;22;123294;-79
2023/11/18 01:03:34;;;;;;;38.33;15.60;;;;;;;8.03;64.97;102328.19;6188766;22;123049;-79
2023/11/18 01:06:02;;;;;;;31.00;14.45;;;;;;;8.01;64.93;102332.63;6188823;22;109524;-79
2023/11/18 01:08:29;;;;;;;34.13;14.75;;;;;;;7.99;65.25;102333.50;6192624;22;110414;-79
2023/11/18 01:10:57;;;;;;;34.75;14.93;;;;;;;7.98;65.00;102347.56;6191921;22;124629;-79
2023/11/18 01:13:26;;;;;;;31.95;14.88;;;;;;;7.97;65.14;102350.25;6188641;22;123952;-79
2023/11/18 01:15:53;;;;;;;31.65;14.63;;;;;;;7.93;64.75;102344.13;6190369;22;109904;-79
2023/11/18 01:18:21;;;;;;;30.05;14.88;;;;;;;7.91;65.18;102348.53;6192952;22;110048;-78
2023/11/18 01:20:48;;;;;;;33.33;14.63;;;;;;;7.89;65.09;102350.31;6192577;22;123637;-78
2023/11/18 01:23:15;;;;;;;39.35;14.98;;;;;;;7.89;65.26;102352.97;6190799;22;124325;-79
2023/11/18 01:25:42;;;;;;;34.25;15.18;;;;;;;7.88;65.25;102356.47;6191135;22;109129;-79
2023/11/18 01:28:09;;;;;;;35.65;15.05;;;;;;;7.88;65.29;102361.75;6190145;22;110533;-79
2023/11/18 01:30:38;;;;;;;36.63;15.77;;;;;;;7.86;65.35;102358.25;6186930;22;123832;-79
2023/11/18 01:33:05;;;;;;;32.85;15.27;;;;;;;7.86;65.37;102363.53;6191603;22;124477;-79
2023/11/18 01:35:33;;;;;;;39.13;16.38;;;;;;;7.85;65.25;102361.75;6191895;22;109260;-79
2023/11/18 01:38:00;;;;;;;38.92;15.77;;;;;;;7.85;65.21;102356.47;6190352;22;109542;-79
2023/11/18 01:40:30;;;;;;;46.03;17.23;;;;;;;7.84;65.34;102365.31;6188949;22;124007;-78
2023/11/18 01:42:57;;;;;;;47.55;15.60;;;;;;;7.86;65.67;102358.25;6191527;22;122759;-79
2023/11/18 01:45:26;;;;;;;53.20;17.90;;;;;;;7.86;65.47;102352.97;6191409;22;108783;-79
2023/11/18 01:47:54;;;;;;;52.55;17.38;;;;;;;7.85;65.59;102345.94;6188435;22;111026;-79
2023/11/18 01:50:22;;;;;;;46.20;16.15;;;;;;;7.87;65.74;102343.28;6189528;22;125105;-79
2023/11/18 01:52:51;;;;;;;48.35;17.02;;;;;;;7.87;65.57;102338.88;6187387;22;122191;-79
2023/11/18 01:55:18;;;;;;;54.63;17.58;;;;;;;7.88;65.63;102340.63;6189286;22;108462;-79
2023/11/18 01:57:46;;;;;;;46.97;16.55;;;;;;;7.90;65.81;102341.50;6192144;22;109492;-79
2023/11/18 02:00:13;;;;;;;61.15;17.60;;;;;;;7.91;65.65;102330.06;6164406;22;123816;-79
2023/11/18 02:02:41;;;;;;;67.53;17.42;;;;;;;7.92;65.78;102331.81;6190346;22;123403;-79
2023/11/18 02:05:12;;;;;;;55.63;18.08;;;;;;;7.95;65.98;102331.78;6163223;22;109410;-79
2023/11/18 02:07:40;;;;;;;78.07;17.42;;;;;;;7.94;65.74;102335.28;6165683;22;110087;-79
2023/11/18 02:10:08;;;;;;;90.03;18.67;;;;;;;7.95;66.01;102331.78;6189621;22;123630;-79
2023/11/18 02:12:42;;;;;;;73.07;17.70;;;;;;;7.95;65.77;102331.78;6193321;22;122967;-78
2023/11/18 02:15:12;;;;;;;68.22;18.77;;;;;;;7.97;65.90;102329.13;6190521;22;107353;-79
2023/11/18 02:17:42;;;;;;;87.85;18.00;;;;;;;7.95;66.09;102331.78;6165914;22;108215;-79
2023/11/18 02:20:15;;;;;;;68.05;18.25;;;;;;;7.97;66.11;102335.28;6192695;22;123133;-79
2023/11/18 02:22:43;;;;;;;70.53;18.08;;;;;;;7.97;66.03;102335.28;6192487;22;123653;-79
2023/11/18 02:25:16;;;;;;;55.20;16.80;;;;;;;8.00;66.04;102334.34;6194009;22;107309;-79
2023/11/18 02:27:43;;;;;;;63.20;17.67;;;;;;;8.04;66.30;102335.22;6192795;22;108780;-79
2023/11/18 02:30:16;;;;;;;61.55;17.50;;;;;;;8.04;66.27;102336.06;6193210;22;122522;-79
2023/11/18 02:32:59;;;;;;;54.38;17.25;;;;;;;8.08;65.97;102347.47;6196573;22;124992;-79
2023/11/18 02:35:31;;;;;;;54.03;17.25;;;;;;;8.10;66.30;102345.69;6196877;22;109428;-79
2023/11/18 02:38:00;;;;;;;57.22;17.08;;;;;;;8.10;66.10;102351.84;6195089;22;108349;-79
2023/11/18 02:40:33;;;;;;;49.92;18.02;;;;;;;8.14;66.28;102357.97;6194771;22;121998;-79
2023/11/18 02:43:04;;;;;;;78.10;18.15;;;;;;;8.15;66.15;102349.16;6197267;22;123648;-79
2023/11/18 02:45:35;;;;;;;49.42;17.40;;;;;;;8.17;66.18;102352.66;6196871;22;107384;-79
2023/11/18 02:48:06;;;;;;;47.25;17.00;;;;;;;8.19;66.43;102346.50;6197344;22;110008;-79
2023/11/18 02:50:41;;;;;;;68.38;18.60;;;;;;;8.21;66.26;102343.81;6198090;22;124519;-79
2023/11/18 02:53:09;;;;;;;59.72;17.58;;;;;;;8.22;66.48;102350.84;6195489;22;123766;-79
2023/11/18 02:55:36;;;;;;;62.95;18.48;;;;;;;8.24;66.38;102348.19;6170873;22;108081;-79
2023/11/18 02:58:04;;;;;;;72.22;18.52;;;;;;;8.24;66.11;102333.22;6196330;22;109662;-79
2023/11/18 03:00:33;;;;;;;57.95;17.40;;;;;;;8.27;66.19;102333.19;6197755;22;124354;-79
2023/11/18 03:03:02;;;;;;;46.38;17.48;;;;;;;8.28;66.47;102321.75;6194687;22;124270;-79
2023/11/18 03:05:31;;;;;;;66.43;18.70;;;;;;;8.31;66.47;102318.22;6196220;22;108903;-79
2023/11/18 03:07:58;;;;;;;57.42;18.35;;;;;;;8.31;66.67;102313.78;6196041;22;109284;-78
2023/11/18 03:10:26;;;;;;;51.25;17.88;;;;;;;8.33;66.48;102312.00;6196385;22;123353;-79
2023/11/18 03:12:54;;;;;;;70.95;19.50;;;;;;;8.35;66.50;102310.22;6194017;22;122107;-79
2023/11/18 03:15:22;;;;;;;68.32;18.38;;;;;;;8.35;66.35;102304.94;6197082;22;109137;-78
2023/11/18 03:17:51;;;;;;;60.58;18.25;;;;;;;8.35;66.66;102312.84;6193566;22;108393;-79
2023/11/18 03:20:22;;;;;;;60.92;18.50;;;;;;;8.36;66.50;102311.97;6194465;22;124371;-79
2023/11/18 03:22:51;;;;;;;64.10;18.83;;;;;;;8.37;66.71;102308.44;6193801;22;122407;-79
2023/11/18 03:25:21;;;;;;;57.25;19.88;;;;;;;8.41;66.76;102316.31;6194361;22;108079;-79
2023/11/18 03:27:49;;;;;;;56.22;18.13;;;;;;;8.42;66.59;102320.72;6194432;22;110309;-79
2023/11/18 03:30:19;;;;;;;57.22;19.25;;;;;;;8.44;66.48;102318.94;6193492;22;122439;-79
2023/11/18 03:32:46;;;;;;;52.25;19.10;;;;;;;8.44;66.73;102318.94;6195644;22;125310;-79
2023/11/18 03:35:14;;;;;;;64.95;18.73;;;;;;;8.48;66.81;102316.25;6195046;22;108861;-79
2023/11/18 03:37:41;;;;;;;68.82;19.05;;;;;;;8.49;66.24;102311.84;6196373;22;110880;-78
2023/11/18 03:40:14;;;;;;;61.83;18.40;;;;;;;8.52;66.93;102311.81;6196073;22;123488;-79
2023/11/18 03:42:43;;;;;;;67.00;18.50;;;;;;;8.53;66.75;102313.53;6196588;22;122827;-79
2023/11/18 03:45:10;;;;;;;50.20;18.50;;;;;;;8.53;66.79;102305.63;6171477;22;109967;-79
2023/11/18 03:47:38;;;;;;;48.85;17.95;;;;;;;8.55;66.77;102299.44;6197311;22;110091;-79
2023/11/18 03:50:07;;;;;;;55.55;19.08;;;;;;;8.56;66.69;102297.69;6196877;22;122177;-78
2023/11/18 03:52:38;;;;;;;53.08;19.50;;;;;;;8.59;66.60;102292.38;6170223;22;123218;-79
2023/11/18 03:55:06;;;;;;;69.18;19.67;;;;;;;8.60;66.58;102288.81;6196031;22;110073;-79
2023/11/18 03:57:34;;;;;;;48.33;18.70;;;;;;;8.61;66.90;102280.00;6170751;22;108521;-79
2023/11/18 04:00:02;;;;;;;50.03;18.70;;;;;;;8.63;66.61;102272.94;6199288;22;123620;-79
2023/11/18 04:02:36;;;;;;;50.13;19.40;;;;;;;8.64;66.59;102264.09;6199811;22;125103;-79
2023/11/18 04:05:04;;;;;;;46.85;18.77;;;;;;;8.64;66.68;102258.81;6196380;22;108885;-79
2023/11/18 04:07:31;;;;;;;44.22;19.02;;;;;;;8.66;66.63;102257.03;6193939;22;108173;-79
2023/11/18 04:10:00;;;;;;;44.83;18.33;;;;;;;8.67;66.81;102258.78;6195189;22;123441;-79
2023/11/18 04:12:27;;;;;;;41.95;18.13;;;;;;;8.68;66.84;102244.69;6195888;22;123540;-79
2023/11/18 04:14:54;;;;;;;38.97;17.35;;;;;;;8.70;66.95;102237.63;6195028;22;109953;-79
2023/11/18 04:17:21;;;;;;;42.83;18.80;;;;;;;8.72;66.68;102238.47;6197375;22;109032;-78
2023/11/18 04:19:49;;;;;;;37.75;18.17;;;;;;;8.72;66.83;102230.56;6195890;22;124015;-79
2023/11/18 04:22:18;;;;;;;46.22;17.92;;;;;;;8.73;66.58;102221.72;6202805;22;123087;-78
2023/11/18 04:24:45;;;;;;;42.40;17.48;;;;;;;8.72;66.72;102217.34;6207807;22;109978;-79
2023/11/18 04:27:13;;;;;;;38.95;18.33;;;;;;;8.73;66.98;102221.72;6181506;22;108298;-79
2023/11/18 04:29:40;;;;;;;38.33;17.63;;;;;;;8.73;66.69;102227.00;6181198;22;123561;-79
2023/11/18 04:32:10;;;;;;;39.15;18.00;;;;;;;8.75;66.87;102230.47;6181960;22;124748;-78
2023/11/18 04:34:37;;;;;;;33.75;16.73;;;;;;;8.74;66.91;102228.75;6205177;22;109376;-79
2023/11/18 04:37:05;;;;;;;40.13;16.83;;;;;;;8.75;66.89;102217.28;6206110;22;109735;-79
2023/11/18 04:39:33;;;;;;;37.42;17.55;;;;;;;8.76;66.59;102216.38;6206202;22;123653;-79
2023/11/18 04:42:03;;;;;;;37.08;17.05;;;;;;;8.76;66.74;102216.38;6204829;22;122772;-78
2023/11/18 04:44:31;;;;;;;35.75;16.83;;;;;;;8.75;66.86;102201.44;6180554;22;107635;-78
2023/11/18 04:46:59;;;;;;;38.65;16.83;;;;;;;8.76;66.91;102200.53;6207469;22;110402;-78
2023/11/18 04:49:26;;;;;;;34.40;17.08;;;;;;;8.79;66.86;102204.03;6207535;22;123418;-78
2023/11/18 04:51:54;;;;;;;38.65;17.00;;;;;;;8.79;66.87;102196.09;6206640;22;123385;-79
2023/11/18 04:54:21;;;;;;;36.13;16.85;;;;;;;8.79;66.94;102182.91;6205170;22;107985;-79
2023/11/18 04:56:48;;;;;;;38.17;17.70;;;;;;;8.79;66.73;102185.53;6180481;22;108544;-79
2023/11/18 04:59:15;;;;;;;38.10;17.77;;;;;;;8.79;66.67;102196.09;6205171;22;124723;-78
2023/11/18 05:01:42;;;;;;;41.55;16.83;;;;;;;8.81;67.07;102189.03;6205677;22;123757;-78
2023/11/18 05:04:10;;;;;;;32.50;17.08;;;;;;;8.81;66.87;102186.38;6206732;22;109057;-79
2023/11/18 05:06:38;;;;;;;34.20;17.13;;;;;;;8.80;66.75;102185.53;6205799;22;109590;-79
2023/11/18 05:09:07;;;;;;;37.97;16.92;;;;;;;8.81;66.84;102181.09;6204415;22;124813;-78
2023/11/18 05:11:35;;;;;;;34.65;17.05;;;;;;;8.83;66.97;102184.59;6203020;22;123544;-79
2023/11/18 05:14:03;;;;;;;41.78;17.25;;;;;;;8.83;67.18;102189.88;6205729;22;108920;-78
2023/11/18 05:16:30;;;;;;;37.17;17.45;;;;;;;8.84;66.67;102187.22;6202286;22;110236;-79
2023/11/18 05:18:57;;;;;;;36.80;16.83;;;;;;;8.86;66.87;102179.25;6199115;22;123740;-79
2023/11/18 05:21:25;;;;;;;38.45;17.10;;;;;;;8.84;67.04;102181.94;6197604;22;124581;-79
2023/11/18 05:23:52;;;;;;;32.55;16.83;;;;;;;8.87;67.18;102188.91;6197215;22;110113;-79
2023/11/18 05:26:20;;;;;;;39.63;16.83;;;;;;;8.87;66.82;102191.56;6197115;22;110531;-79
2023/11/18 05:28:48;;;;;;;34.28;16.48;;;;;;;8.88;66.78;102177.47;6195057;22;123754;-79
2023/11/18 05:31:16;;;;;;;38.72;17.10;;;;;;;8.91;66.82;102180.03;6194538;22;123429;-79
2023/11/18 05:33:51;;;;;;;36.88;16.95;;;;;;;8.92;66.93;102173.88;6195540;22;109592;-79
2023/11/18 05:36:26;;;;;;;37.75;17.50;;;;;;;8.92;67.01;102168.59;6195685;22;107888;-79
2023/11/18 05:38:55;;;;;;;32.08;15.90;;;;;;;8.95;66.86;102168.56;6193048;22;124175;-79
2023/11/18 05:41:30;;;;;;;30.52;16.52;;;;;;;8.94;67.11;102156.22;6189891;22;122949;-79
2023/11/18 05:43:57;;;;;;;;;;;;;;;8.93;67.15;102154.50;6191680;22;108868;-78
2023/11/18 05:46:29;;;;;;;30.38;15.38;;;;;;;8.95;66.97;102152.69;6199170;22;109799;-79
2023/11/18 05:48:57;;;;;;;30.23;14.88;;;;;;;8.95;66.87;102152.69;6192693;22;123226;-79
2023/11/18 05:51:26;;;;;;;35.20;16.00;;;;;;;8.96;67.15;102154.41;6168125;22;121568;-79
2023/11/18 05:53:55;;;;;;;31.27;15.32;;;;;;;8.97;67.01;102156.19;6193196;22;109333;-79
2023/11/18 05:56:22;;;;;;;28.45;15.65;;;;;;;8.98;66.88;102147.34;6193143;22;109535;-79
2023/11/18 05:58:53;;;;;;;36.03;15.77;;;;;;;9.01;67.19;102136.72;6192583;22;123976;-79
2023/11/18 06:01:21;;;;;;;31.50;15.55;;;;;;;9.01;67.26;102142.00;6194414;22;122931;-79
2023/11/18 06:03:49;;;;;;;30.67;15.20;;;;;;;9.02;67.21;102149.03;6192606;22;108816;-79
2023/11/18 06:06:16;;;;;;;28.10;15.35;;;;;;;9.05;67.19;102142.81;6194041;22;110495;-79
2023/11/18 06:08:49;;;;;;;31.55;15.38;;;;;;;9.05;67.22;102132.25;6193513;22;124558;-79
2023/11/18 06:11:18;;;;;;;32.10;15.25;;;;;;;9.04;67.03;102136.69;6192108;22;123360;-79
2023/11/18 06:13:50;;;;;;;24.35;13.27;;;;;;;9.07;67.18;102133.97;6193848;22;110456;-79
2023/11/18 06:16:24;;;;;;;24.40;13.45;;;;;;;9.06;67.11;102134.88;6165108;22;108071;-79
2023/11/18 06:18:53;;;;;;;28.23;14.00;;;;;;;9.07;67.03;102136.59;6189473;22;123833;-79
2023/11/18 06:21:30;;;;;;;30.33;13.80;;;;;;;9.08;66.96;102127.78;6189175;22;122989;-79
2023/11/18 06:23:59;;;;;;;24.02;13.48;;;;;;;9.07;67.11;102120.75;6190765;22;109099;-78
2023/11/18 06:26:27;;;;;;;27.33;13.48;;;;;;;9.09;67.23;102129.53;6191924;22;109420;-79
2023/11/18 06:28:55;;;;;;;30.92;13.65;;;;;;;9.10;67.10;102141.84;6193382;22;125186;-79
2023/11/18 06:31:24;;;;;;;28.23;13.63;;;;;;;9.10;67.28;102141.84;6191526;22;123476;-79
2023/11/18 06:33:52;;;;;;;28.15;13.13;;;;;;;9.12;67.07;102153.25;6191775;22;108480;-79
2023/11/18 06:36:21;;;;;;;27.67;13.43;;;;;;;9.13;67.04;102144.41;6191002;22;110630;-79
2023/11/18 06:38:52;;;;;;;26.92;14.25;;;;;;;9.15;67.19;102134.72;6192013;22;124796;-79
2023/11/18 06:41:23;;;;;;;27.00;13.02;;;;;;;9.15;66.78;102124.16;6189750;22;124338;-79
2023/11/18 06:43:51;;;;;;;26.55;12.85;;;;;;;9.16;67.20;102131.16;6190986;22;110054;-78
2023/11/18 06:46:31;;;;;;;23.85;13.15;;;;;;;9.16;67.49;102135.56;6193110;22;109715;-79
2023/11/18 06:49:03;;;;;;;27.83;13.23;;;;;;;9.16;67.10;102135.56;6187131;22;125284;-79
2023/11/18 06:51:34;;;;;;;24.42;13.10;;;;;;;9.18;67.18;102130.28;6187111;22;122371;-79
2023/11/18 06:54:13;;;;;;;29.35;13.95;;;;;;;9.16;67.26;102120.59;6190925;22;109132;-79
2023/11/18 06:56:45;;;;;;;29.70;13.20;;;;;;;9.18;67.12;102122.34;6183069;22;109904;-79
2023/11/18 06:59:13;;;;;;;22.73;12.45;;;;;;;9.19;67.23;102124.06;6183619;22;123625;-79
2023/11/18 07:01:43;;;;;;;24.73;12.88;;;;;;;9.19;66.96;102124.06;6184079;22;123605;-79
2023/11/18 07:04:12;;;;;;;26.13;12.50;;;;;;;9.19;67.24;102108.22;6182389;22;110988;-79
2023/11/18 07:06:39;;;;;;;25.40;12.73;;;;;;;9.20;67.43;102118.75;6185654;22;108790;-79
2023/11/18 07:09:17;;;;;;;27.52;13.13;;;;;;;9.21;67.19;102116.97;6182370;22;123880;-79
2023/11/18 07:11:47;;;;;;;20.55;10.35;;;;;;;9.22;67.28;102124.03;6181331;22;123319;-76
2023/11/18 07:14:14;;;;;;;20.08;9.95;;;;;;;9.24;67.10;102119.56;6186018;22;109217;-78
2023/11/18 07:16:43;;;;;;;22.77;10.25;;;;;;;9.26;67.18;102120.41;6184206;22;109174;-80
2023/11/18 07:19:17;;;;;;;22.33;10.45;;;;;;;9.28;67.21;102115.97;6186000;22;125420;-79
2023/11/18 07:21:45;;;;;;;24.45;10.52;;;;;;;9.29;66.94;102113.28;6157823;22;122185;-79
2023/11/18 07:24:13;;;;;;;20.77;10.23;;;;;;;9.31;67.08;102108.00;6182024;22;108805;-80
2023/11/18 07:26:40;;;;;;;16.63;9.75;;;;;;;9.31;67.21;102108.84;6182472;22;109703;-79
2023/11/18 07:29:07;;;;;;;19.50;9.90;;;;;;;9.32;67.19;102109.72;6185305;22;124754;-78
2023/11/18 07:35:19;;;;;;;18.95;9.20;;;;;;;9.31;67.17;102102.69;6192452;22;109159;-80
2023/11/18 07:37:52;;;;;;;19.10;9.25;;;;;;;9.32;67.25;102099.13;6191798;22;109344;-80
2023/11/18 07:40:28;;;;;;;18.38;9.38;;;;;;;9.32;67.21;102104.44;6190530;22;123967;-80
2023/11/18 07:43:03;;;;;;;15.05;5.47;;;;;;;9.33;67.15;102111.47;6191003;22;124076;-79
2023/11/18 07:45:49;;;;;;;15.02;6.75;;;;;;;9.33;67.14;102116.75;6162993;22;109565;-80
2023/11/18 07:48:28;;;;;;;15.95;7.40;;;;;;;9.34;67.21;102118.47;6197881;22;109765;-80
2023/11/18 07:51:25;;;;;;;14.32;6.65;;;;;;;9.35;67.13;102125.53;6188724;22;124033;-80
2023/11/18 07:54:06;;;;;;;16.25;7.10;;;;;;;9.34;67.00;102129.94;6188700;22;124565;-80
2023/11/18 07:56:47;;;;;;;15.63;7.35;;;;;;;9.35;66.90;102123.75;6184182;22;110394;-79
2023/11/18 07:59:18;;;;;;;15.32;7.50;;;;;;;9.35;66.97;102121.09;6186487;22;109611;-72
2023/11/18 08:01:46;;;;;;;19.90;7.03;;;;;;;9.37;67.08;102128.16;6183543;22;123559;-71
2023/11/18 08:04:14;;;;;;;16.25;7.93;;;;;;;9.39;67.17;102137.78;6181944;22;124020;-72
2023/11/18 08:06:43;;;;;;;17.02;7.72;;;;;;;9.42;66.90;102131.56;6182956;22;108017;-72
2023/11/18 08:09:14;;;;;;;19.30;8.18;;;;;;;9.43;66.81;102128.88;6184605;22;109481;-72
2023/11/18 08:11:41;;;;;;;14.95;7.15;;;;;;;9.45;66.89;102132.38;6183607;22;124287;-72
2023/11/18 08:14:08;;;;;;;19.33;7.60;;;;;;;9.47;66.93;102135.84;6184399;22;124210;-71
2023/11/18 08:16:36;;;;;;;18.45;8.00;;;;;;;9.48;66.90;102132.31;6184711;22;109640;-71
2023/11/18 08:19:05;;;;;;;15.43;7.45;;;;;;;9.50;67.17;102130.50;6184007;22;109026;-72
2023/11/18 08:21:33;;;;;;;20.13;7.65;;;;;;;9.54;67.04;102120.75;6181763;22;123158;-71
2023/11/18 08:24:01;;;;;;;17.23;7.40;;;;;;;9.55;67.17;102123.38;6184308;22;124125;-71
2023/11/18 08:26:28;;;;;;;20.83;7.93;;;;;;;9.57;66.89;102119.81;6185245;22;109573;-71
2023/11/18 08:28:56;;;;;;;20.85;7.32;;;;;;;9.58;66.82;102110.97;6184116;22;109356;-71
2023/11/18 08:31:24;;;;;;;15.82;7.30;;;;;;;9.57;66.98;102109.22;6182704;22;124869;-71
2023/11/18 08:33:54;;;;;;;19.67;7.68;;;;;;;9.58;66.78;102111.84;6181790;22;123807;-71
2023/11/18 08:36:26;;;;;;;18.25;7.25;;;;;;;9.60;66.73;102109.16;6179292;22;114927;-71
2023/11/18 08:38:57;;;;;;;15.15;7.28;;;;;;;9.57;66.89;102110.13;6179816;22;114319;-71
2023/11/18 08:41:24;;;;;;;16.85;6.90;;;;;;;9.58;66.92;102105.69;6178906;22;124176;-71
2023/11/18 08:43:57;;;;;;;19.85;7.25;;;;;;;9.59;66.71;102092.44;6179761;22;123703;-73
2023/11/18 08:46:44;;;;;;;17.58;7.20;;;;;;;9.60;66.49;102093.31;6180612;22;115500;-71
2023/11/18 08:49:11;;;;;;;15.25;7.10;;;;;;;9.60;66.86;102077.44;6181364;22;115213;-71
2023/11/18 08:51:41;;;;;;;14.55;6.95;;;;;;;9.61;66.87;102063.31;6178814;22;124389;-71
2023/11/18 08:54:22;;;;;;;23.55;7.28;;;;;;;9.63;66.93;102056.22;6180561;22;123953;-71
2023/11/18 08:56:52;;;;;;;14.98;6.47;;;;;;;9.65;66.88;102049.13;6181659;22;114289;-71
2023/11/18 08:59:27;;;;;;;17.15;6.90;;;;;;;9.67;66.81;102047.31;6180924;22;114591;-73
2023/11/18 09:01:55;;;;;;;13.90;6.50;;;;;;;9.67;66.61;102032.28;6181050;22;124180;-73
2023/11/18 09:04:23;;;;;;;15.40;6.30;;;;;;;9.68;66.72;102038.44;6181316;22;124755;-73
2023/11/18 09:07:00;;;;;;;14.73;6.55;;;;;;;9.70;66.78;102040.19;6181845;22;114594;-71
2023/11/18 09:09:27;;;;;;;15.63;6.75;;;;;;;9.73;66.83;102033.94;6180118;22;114249;-72
2023/11/18 09:11:58;;;;;;;14.50;6.10;;;;;;;9.75;66.57;102040.91;6153666;22;123279;-72
2023/11/18 09:14:26;;;;;;;18.60;6.30;;;;;;;9.77;66.61;102032.09;6178203;22;123214;-72
2023/11/18 09:16:58;;;;;;;11.18;6.18;;;;;;;9.81;66.96;102050.50;6182602;22;114342;-72
2023/11/18 09:19:26;;;;;;;15.20;6.18;;;;;;;9.85;66.96;102035.44;6180278;22;113572;-72
2023/11/18 09:21:54;;;;;;;14.27;6.50;;;;;;;9.88;67.01;102041.53;6180169;22;123055;-73
2023/11/18 09:24:24;;;;;;;15.15;5.72;;;;;;;9.91;66.76;102036.16;6179269;22;123905;-72
2023/11/18 09:26:54;;;;;;;13.18;5.85;;;;;;;9.97;66.95;102024.56;6181680;22;114298;-72
2023/11/18 09:29:24;;;;;;;14.77;6.35;;;;;;;10.00;66.83;102024.50;6182255;22;113777;-72
2023/11/18 09:31:55;;;;;;;13.10;5.85;;;;;;;10.03;67.01;102023.56;6179516;22;123783;-72
2023/11/18 09:34:28;;;;;;;11.38;5.13;;;;;;;10.08;66.71;102021.69;6179831;22;124134;-73
2023/11/18 09:36:55;;;;;;;15.88;5.63;;;;;;;10.12;66.84;102012.75;6181025;22;115335;-72
2023/11/18 09:39:29;;;;;;;13.98;5.35;;;;;;;10.15;66.79;102010.00;6179949;22;113880;-73
2023/11/18 09:41:58;;;;;;;16.15;5.60;;;;;;;10.18;66.66;101996.72;6176871;22;123890;-72
2023/11/18 09:44:27;;;;;;;10.43;4.82;;;;;;;10.20;66.64;101989.59;6180512;22;123822;-72
2023/11/18 09:47:04;;;;;;;12.18;3.95;;;;;;;10.22;66.74;101987.78;6181155;22;114376;-72
2023/11/18 09:49:38;;;;;;;12.70;3.90;;;;;;;10.25;66.75;101987.72;6180339;22;114048;-72
2023/11/18 09:52:06;;;;;;;12.15;4.60;;;;;;;10.27;66.53;101972.66;6181418;22;126937;-75
2023/11/18 09:54:52;;;;;;;9.23;4.22;;;;;;;10.30;66.54;101969.97;6184688;22;123308;-75
2023/11/18 09:57:31;;;;;;;8.57;3.92;;;;;;;10.31;66.68;101971.69;6183670;22;114712;-76
2023/11/18 10:02:55;;;;;;;9.57;3.97;;;;;;;10.35;66.70;101955.72;6181260;22;123083;-75
2023/11/18 10:05:26;;;;;;;11.95;4.10;;;;;;;10.35;66.58;101955.72;6183901;22;123645;-75
2023/11/18 10:07:55;;;;;;;8.52;4.05;;;;;;;10.37;66.70;101953.91;6184492;22;114540;-75
2023/11/18 10:10:22;;;;;;;14.90;4.88;;;;;;;10.38;66.52;101950.34;6180669;22;113936;-75
2023/11/18 10:12:57;;;;;;;10.88;5.20;;;;;;;10.42;66.49;101933.47;6183925;22;124359;-76
2023/11/18 10:15:27;;;;;;;9.32;4.80;;;;;;;10.43;66.64;101943.16;6183022;22;123900;-76
2023/11/18 10:18:06;;;;;;;11.23;4.97;;;;;;;10.46;66.45;101937.78;6182204;22;113560;-76
2023/11/18 10:20:51;;;;;;;11.95;5.25;;;;;;;10.46;66.71;101924.53;6159037;22;113517;-76
2023/11/18 10:23:22;;;;;;;10.15;5.13;;;;;;;10.48;66.49;101917.41;6181124;22;124303;-75
2023/11/18 10:25:57;;;;;;;12.30;4.90;;;;;;;10.51;66.55;101917.34;6157637;22;123633;-76
2023/11/18 10:28:46;;;;;;;14.82;4.93;;;;;;;10.53;66.68;101912.88;6170703;22;115010;-77
2023/11/18 10:31:18;;;;;;;14.10;4.85;;;;;;;10.56;66.80;101906.59;6187684;22;115278;-76
2023/11/18 10:33:49;;;;;;;14.02;4.68;;;;;;;10.57;66.72;101919.81;6184055;22;123388;-76
2023/11/18 10:36:25;;;;;;;10.32;4.28;;;;;;;10.61;66.69;101921.47;6184572;22;123749;-76
2023/11/18 10:38:55;;;;;;;9.65;4.10;;;;;;;10.65;66.59;101923.09;6184476;22;114250;-76
2023/11/18 10:41:42;;;;;;;13.93;4.53;;;;;;;10.67;66.64;101910.69;6184488;22;113904;-76
2023/11/18 10:44:13;;;;;;;11.68;4.35;;;;;;;10.68;66.58;101912.44;6182267;22;124624;-77
2023/11/18 10:46:54;;;;;;;11.60;3.95;;;;;;;10.69;66.73;101898.25;6182338;22;124040;-76
2023/11/18 10:49:21;;;;;;;11.00;4.45;;;;;;;10.71;66.95;101891.13;6180573;22;114190;-76
2023/11/18 10:51:51;;;;;;;12.10;4.25;;;;;;;10.75;66.78;101885.75;6180720;22;113005;-77
2023/11/18 10:54:19;;;;;;;8.25;4.35;;;;;;;10.76;66.77;101887.50;6181091;22;124289;-76
2023/11/18 10:57:07;;;;;;;8.52;4.10;;;;;;;10.79;66.96;101892.69;6183641;22;124743;-76
2023/11/18 11:00:12;;;;;;;13.63;4.55;;;;;;;10.81;66.81;101890.88;6180953;22;113360;-76
2023/11/18 11:02:49;;;;;;;8.68;4.50;;;;;;;10.84;66.90;101896.09;6183097;22;114156;-76
2023/11/18 11:05:32;;;;;;;9.98;4.38;;;;;;;10.84;66.82;101880.19;6183328;22;124185;-76
2023/11/18 11:08:05;;;;;;;10.65;4.25;;;;;;;10.87;66.77;101880.09;6183274;22;124626;-78
2023/11/18 11:10:32;;;;;;;14.18;3.85;;;;;;;10.90;67.02;101890.59;6199961;22;113546;-80
2023/11/18 11:13:02;;;;;;;13.35;4.20;;;;;;;10.93;66.89;101890.53;6210559;22;113477;-81
2023/11/18 11:15:31;;;;;;;11.73;4.45;;;;;;;10.95;67.05;101894.00;6209814;22;126559;-80
2023/11/18 11:18:53;;;;;;;9.00;4.25;;;;;;;10.98;66.99;101896.56;6178268;22;126143;-81
2023/11/18 11:22:15;;;;;;;10.65;4.25;;;;;;;10.98;66.85;101880.66;6150177;22;116507;-80
2023/11/18 11:25:21;;;;;;;9.07;4.00;;;;;;;10.99;67.11;101858.53;6149477;22;113255;-80
2023/11/18 11:28:20;;;;;;;9.27;4.32;;;;;;;11.00;66.89;101833.75;6155636;22;123796;-80
2023/11/18 11:30:55;;;;;;;;;;;;;;;10.99;66.89;101837.31;6177000;22;123584;-81
2023/11/18 11:33:28;;;;;;;7.53;3.65;;;;;;;11.00;66.80;101833.75;6178457;22;115204;-80
2023/11/18 11:35:59;;;;;;;7.25;3.80;;;;;;;10.99;66.82;101826.72;6187365;22;114615;-80